Pagrindinis puslapis
METAR-TAF:

METAR-TAF

Oro uostai :

Urmija, Iranas

platuma: 37-32N, ilguma: 045-05E, Aukštis: 1297 m

Dabartinis oras

Ataskaita buvo paskelbta 11 minutes, ne 06:00 UTC
Vėjas 2 kt iš Šiaurės/Šiaurės Vakarų
Temperatūra 23°C
Drėgmė 36%
Slėgis 1020 hPa
Matomumas 10 km arba daugiau
nėra debesų žemiau 1500 m ir nėra kamuolinių lietaus debesų

METAR: OITR 140600Z 33002KT CAVOK 23/07 Q1020

Laikas: 10:41 (06:11 UTC)

Prognozė

Ataskaita buvo paskelbta 41 minutes, ne 05:30 UTC
Prognozė galioja nuo 14 metu 06 UTC su 15 metu 12 UTC
Vėjas 8 kt iš Vakarų
Matomumas: 8000 m
Mažai debesys ne aukštis 3500 ft
Išsisklaidę debesys ne aukštis 10000 ft
Laikinai
nuo 14 metu 09 UTC su 14 metu 15 UTC
Vėjas 16 kt iš Šiaurės Rytų su gūsio iki 26 kt
Išsisklaidę debesys ne aukštis 3500 ft, Liūtiniai kamuoliniai debesys.
Išsisklaidę debesys ne aukštis 3500 ft
Su prošvaistėmis ne aukštis 10000 ft
perkūnija, lietus

TAF: OITR 140530Z 1406/1512 28008KT 8000 FEW035 SCT100 TEMPO 1409/1415 04016G26KT TSRA SCT035CB SCT035 BKN100

Orai ataskaitas ir orų prognozės (METAR, TAF).

turimą stotys yra geltonos ir raudonos taškus žemėlapyje.

Perkelti pele per norėdami pamatyti stoties vardą.

Tada spustelėkite, norėdami matyti oro stebėjimo ir prognozės.

Norėdami pakeisti žemėlapį: spustelėkite ant žalios mygtukų su juodo kryžiaus žemyn,; žalią mygtuką su brūkšneliu, jei norite nutolinti; arba žalių rodyklių gretimoms žemėlapius.


METAR-TAF: